createdAt,value
2018-12-30T00:00:38.882Z,2.84
2018-12-30T00:01:43.329Z,2.91
2018-12-30T00:02:46.989Z,3.08
2018-12-30T00:03:50.699Z,3.13
2018-12-30T00:04:54.606Z,3.23
2018-12-30T00:05:58.294Z,3.30
2018-12-30T00:07:01.981Z,3.25
2018-12-30T00:08:05.468Z,3.20
2018-12-30T00:09:08.913Z,3.23
2018-12-30T00:10:12.665Z,3.20
2018-12-30T00:11:16.122Z,3.25
2018-12-30T00:12:19.577Z,3.18
2018-12-30T00:13:23.010Z,3.18
2018-12-30T00:14:26.519Z,3.21
2018-12-30T00:15:30.030Z,3.17
2018-12-30T00:16:33.562Z,3.12
2018-12-30T00:17:37.006Z,3.19
2018-12-30T00:18:40.447Z,3.05
2018-12-30T00:19:43.890Z,2.97
2018-12-30T00:20:47.355Z,3.02
2018-12-30T00:21:51.181Z,3.04
2018-12-30T00:22:54.770Z,2.96
2018-12-30T00:23:58.209Z,2.97
2018-12-30T00:25:01.714Z,2.90
2018-12-30T00:26:05.228Z,3.02
2018-12-30T00:27:08.775Z,3.07
2018-12-30T00:28:12.210Z,3.14
2018-12-30T00:29:15.724Z,3.14
2018-12-30T00:30:19.162Z,3.21
2018-12-30T00:31:22.615Z,3.29
2018-12-30T00:32:26.077Z,3.36
2018-12-30T00:33:29.517Z,3.36
2018-12-30T00:34:32.965Z,3.34
2018-12-30T00:35:36.401Z,3.30
2018-12-30T00:36:40.140Z,3.32
2018-12-30T00:37:43.588Z,3.17
2018-12-30T00:38:47.089Z,3.12
2018-12-30T00:39:50.577Z,3.06
2018-12-30T00:40:53.995Z,3.17
2018-12-30T00:41:57.451Z,3.14
2018-12-30T00:43:00.941Z,3.17
2018-12-30T00:44:04.427Z,3.15
2018-12-30T00:45:07.924Z,3.27
2018-12-30T00:46:11.355Z,3.15
2018-12-30T00:47:14.878Z,3.20
2018-12-30T00:48:18.405Z,3.26
2018-12-30T00:49:21.861Z,3.28
2018-12-30T00:50:25.311Z,3.28
2018-12-30T00:51:29.401Z,3.24
2018-12-30T00:52:32.873Z,3.27
2018-12-30T00:53:36.311Z,3.24
2018-12-30T00:54:39.816Z,3.34
2018-12-30T00:55:43.246Z,3.37
2018-12-30T00:56:46.756Z,3.46
2018-12-30T00:57:50.212Z,3.41
2018-12-30T00:58:53.643Z,3.39
2018-12-30T00:59:57.071Z,3.31
2018-12-30T01:01:00.509Z,3.30
2018-12-30T01:02:03.942Z,3.34
2018-12-30T01:03:07.476Z,3.36
2018-12-30T01:04:11.007Z,3.39
2018-12-30T01:05:14.511Z,3.44
2018-12-30T01:06:18.119Z,3.41
2018-12-30T01:07:21.847Z,3.36
2018-12-30T01:08:25.275Z,3.34
2018-12-30T01:09:28.712Z,3.29
2018-12-30T01:10:32.209Z,3.33
2018-12-30T01:11:35.632Z,3.39
2018-12-30T01:12:39.221Z,3.51
2018-12-30T01:13:42.733Z,3.61
2018-12-30T01:14:46.181Z,3.69
2018-12-30T01:15:49.621Z,3.68
2018-12-30T01:16:53.050Z,3.57
2018-12-30T01:17:56.582Z,3.56
2018-12-30T01:19:00.035Z,3.56
2018-12-30T01:20:03.563Z,3.59
2018-12-30T01:21:07.187Z,3.55
2018-12-30T01:22:10.906Z,3.63
2018-12-30T01:23:14.354Z,3.64
2018-12-30T01:24:17.782Z,3.64
2018-12-30T01:25:21.206Z,3.66
2018-12-30T01:26:24.701Z,3.55
2018-12-30T01:27:28.139Z,3.48
2018-12-30T01:28:31.674Z,3.46
2018-12-30T01:29:35.171Z,3.50
2018-12-30T01:30:38.604Z,3.50
2018-12-30T01:31:42.106Z,3.58
2018-12-30T01:32:45.537Z,3.62
2018-12-30T01:33:48.986Z,3.74
2018-12-30T01:34:52.562Z,3.71
2018-12-30T01:35:56.021Z,3.65
2018-12-30T01:36:59.646Z,3.66
2018-12-30T01:38:03.359Z,3.68
2018-12-30T01:39:07.453Z,3.67
2018-12-30T01:40:10.883Z,3.68
2018-12-30T01:41:14.382Z,3.63
2018-12-30T01:42:17.816Z,3.63
2018-12-30T01:43:21.324Z,3.60
2018-12-30T01:44:24.778Z,3.66
2018-12-30T01:45:28.257Z,3.61
2018-12-30T01:46:31.697Z,3.60
2018-12-30T01:47:35.125Z,3.64
2018-12-30T01:48:38.629Z,3.57
2018-12-30T01:49:42.078Z,3.55
2018-12-30T01:50:45.605Z,3.56
2018-12-30T01:51:49.047Z,3.49
2018-12-30T01:52:52.767Z,3.50
2018-12-30T01:53:56.398Z,3.45
2018-12-30T01:54:59.850Z,3.53
2018-12-30T01:56:03.308Z,3.60
2018-12-30T01:57:08.361Z,3.60
2018-12-30T01:58:11.867Z,3.57
2018-12-30T01:59:15.295Z,3.64
2018-12-30T02:00:18.818Z,3.70
2018-12-30T02:01:22.292Z,3.75
2018-12-30T02:02:25.720Z,3.77
2018-12-30T02:03:29.153Z,3.83
2018-12-30T02:04:32.592Z,3.86
2018-12-30T02:05:36.042Z,3.76
2018-12-30T02:06:39.474Z,3.68
2018-12-30T02:07:42.974Z,3.65
2018-12-30T02:08:46.468Z,3.64
2018-12-30T02:09:50.082Z,3.73
2018-12-30T02:10:53.712Z,3.73
2018-12-30T02:11:57.176Z,3.74
2018-12-30T02:13:00.664Z,3.75
2018-12-30T02:14:04.231Z,3.81
2018-12-30T02:15:07.807Z,3.87
2018-12-30T02:16:11.259Z,3.93
2018-12-30T02:17:14.752Z,3.88
2018-12-30T02:18:18.183Z,3.91
2018-12-30T02:19:21.616Z,3.91
2018-12-30T02:20:25.077Z,3.68
2018-12-30T02:21:28.622Z,3.70
2018-12-30T02:22:32.065Z,3.62
2018-12-30T02:23:35.489Z,3.66
2018-12-30T02:24:38.929Z,3.70
2018-12-30T02:25:42.372Z,3.64
2018-12-30T02:26:46.089Z,3.62
2018-12-30T02:27:49.907Z,3.62
2018-12-30T02:28:53.346Z,3.61
2018-12-30T02:29:56.777Z,3.59
2018-12-30T02:31:00.209Z,3.58
2018-12-30T02:32:03.747Z,3.58
2018-12-30T02:33:07.199Z,3.60
2018-12-30T02:34:10.625Z,3.56
2018-12-30T02:35:14.158Z,3.54
2018-12-30T02:36:17.614Z,3.61
2018-12-30T02:37:21.065Z,3.65
2018-12-30T02:38:24.530Z,3.72
2018-12-30T02:39:27.967Z,3.64
2018-12-30T02:40:31.476Z,3.63
2018-12-30T02:41:34.944Z,3.64
2018-12-30T02:42:38.422Z,3.76
2018-12-30T02:43:42.134Z,3.78
2018-12-30T02:44:45.841Z,3.76
2018-12-30T02:45:49.273Z,3.74
2018-12-30T02:46:52.721Z,3.68
2018-12-30T02:47:56.173Z,3.64
2018-12-30T02:48:59.638Z,3.78
2018-12-30T02:50:03.076Z,3.74
2018-12-30T02:51:06.508Z,3.80
2018-12-30T02:52:09.942Z,3.89
2018-12-30T02:53:13.386Z,3.88
2018-12-30T02:54:16.816Z,3.77
2018-12-30T02:55:20.260Z,3.76
2018-12-30T02:56:23.689Z,3.79
2018-12-30T02:57:27.129Z,3.80
2018-12-30T02:58:30.587Z,3.79
2018-12-30T02:59:34.023Z,3.74
2018-12-30T03:00:37.453Z,3.73
2018-12-30T03:01:41.173Z,3.72
2018-12-30T03:02:44.602Z,3.72
2018-12-30T03:03:48.058Z,3.78
2018-12-30T03:04:51.494Z,3.88
2018-12-30T03:05:54.998Z,3.86
2018-12-30T03:06:58.433Z,3.77
2018-12-30T03:08:01.875Z,3.80
2018-12-30T03:09:07.237Z,3.86
2018-12-30T03:10:10.676Z,3.89
2018-12-30T03:11:14.113Z,3.83
2018-12-30T03:12:17.560Z,3.82
2018-12-30T03:13:20.992Z,3.81
2018-12-30T03:14:24.457Z,3.76
2018-12-30T03:15:27.886Z,3.76
2018-12-30T03:16:31.333Z,3.76
2018-12-30T03:17:34.766Z,3.77
2018-12-30T03:18:38.209Z,3.83
2018-12-30T03:19:41.736Z,3.85
2018-12-30T03:20:45.469Z,3.90
2018-12-30T03:21:48.910Z,3.95
2018-12-30T03:22:52.343Z,3.90
2018-12-30T03:23:55.801Z,3.96
2018-12-30T03:24:59.247Z,3.92
2018-12-30T03:26:02.698Z,3.92
2018-12-30T03:27:06.133Z,4.02
2018-12-30T03:28:09.565Z,4.02
2018-12-30T03:29:13.062Z,4.08
2018-12-30T03:30:16.583Z,4.13
2018-12-30T03:31:20.043Z,4.12
2018-12-30T03:32:23.486Z,4.07
2018-12-30T03:33:26.904Z,3.92
2018-12-30T03:34:30.329Z,3.88
2018-12-30T03:35:33.785Z,3.88
2018-12-30T03:36:37.236Z,3.87
2018-12-30T03:37:40.681Z,3.97
2018-12-30T03:38:44.108Z,4.01
2018-12-30T03:39:47.599Z,4.00
2018-12-30T03:40:51.001Z,3.90
2018-12-30T03:41:54.804Z,3.91
2018-12-30T03:42:58.235Z,3.90
2018-12-30T03:44:01.748Z,3.90
2018-12-30T03:45:06.132Z,3.96
2018-12-30T03:46:09.578Z,3.97
2018-12-30T03:47:13.032Z,3.88
2018-12-30T03:48:16.471Z,3.87
2018-12-30T03:49:19.910Z,3.87
2018-12-30T03:50:23.344Z,3.88
2018-12-30T03:51:26.796Z,3.96
2018-12-30T03:52:30.337Z,4.03
2018-12-30T03:53:33.918Z,3.97
2018-12-30T03:54:37.349Z,4.02
2018-12-30T03:55:40.854Z,3.94
2018-12-30T03:56:44.312Z,3.88
2018-12-30T03:57:47.777Z,3.87
2018-12-30T03:58:51.230Z,3.86
2018-12-30T03:59:54.673Z,3.90
2018-12-30T04:00:58.109Z,3.97
2018-12-30T04:02:01.578Z,3.97
2018-12-30T04:03:05.089Z,4.01
2018-12-30T04:04:08.522Z,3.94
2018-12-30T04:05:11.953Z,4.02
2018-12-30T04:06:15.454Z,4.04
2018-12-30T04:07:18.911Z,3.99
2018-12-30T04:08:22.357Z,3.98
2018-12-30T04:09:25.836Z,3.95
2018-12-30T04:10:29.274Z,4.02
2018-12-30T04:11:32.717Z,4.04
2018-12-30T04:12:36.161Z,3.99
2018-12-30T04:13:39.693Z,3.90
2018-12-30T04:14:43.119Z,3.88
2018-12-30T04:15:46.583Z,3.87
2018-12-30T04:16:50.099Z,3.92
2018-12-30T04:17:53.573Z,4.05
2018-12-30T04:18:57.052Z,4.03
2018-12-30T04:20:00.496Z,4.02
2018-12-30T04:21:03.930Z,3.89
2018-12-30T04:22:07.360Z,3.86
2018-12-30T04:23:10.837Z,3.87
2018-12-30T04:24:14.373Z,3.92
2018-12-30T04:25:17.803Z,3.94
2018-12-30T04:26:21.314Z,3.98
2018-12-30T04:27:24.828Z,3.98
2018-12-30T04:28:28.273Z,4.02
2018-12-30T04:29:31.702Z,4.04
2018-12-30T04:30:35.195Z,4.08
2018-12-30T04:31:38.604Z,4.14
2018-12-30T04:32:42.036Z,4.08
2018-12-30T04:33:45.491Z,4.03
2018-12-30T04:34:48.937Z,3.98
2018-12-30T04:35:52.414Z,3.85
2018-12-30T04:36:55.843Z,3.89
2018-12-30T04:37:59.271Z,3.90
2018-12-30T04:39:02.793Z,3.95
2018-12-30T04:40:06.789Z,4.01
2018-12-30T04:41:10.226Z,3.97
2018-12-30T04:42:13.653Z,3.90
2018-12-30T04:43:17.094Z,3.87
2018-12-30T04:44:29.053Z,3.83
2018-12-30T04:45:25.729Z,3.94
2018-12-30T04:46:29.189Z,3.86
2018-12-30T04:47:32.623Z,3.90
2018-12-30T04:48:36.073Z,3.90
2018-12-30T04:49:39.562Z,3.81
2018-12-30T04:50:43.015Z,3.84
2018-12-30T04:51:46.451Z,3.93
2018-12-30T04:52:49.888Z,3.87
2018-12-30T04:53:53.325Z,3.86
2018-12-30T04:54:56.785Z,3.92
2018-12-30T04:56:00.299Z,3.96
2018-12-30T04:57:03.731Z,4.02
2018-12-30T04:58:07.177Z,3.99
2018-12-30T04:59:10.608Z,3.96
2018-12-30T05:00:14.129Z,3.94
2018-12-30T05:01:17.586Z,3.99
2018-12-30T05:02:21.013Z,4.08
2018-12-30T05:03:24.448Z,4.08
2018-12-30T05:04:27.878Z,4.01
2018-12-30T05:05:31.336Z,4.00
2018-12-30T05:06:34.796Z,4.00
2018-12-30T05:07:38.288Z,3.93
2018-12-30T05:08:41.718Z,3.93
2018-12-30T05:09:45.147Z,3.97
2018-12-30T05:10:48.591Z,3.97
2018-12-30T05:11:52.043Z,3.87
2018-12-30T05:12:55.472Z,3.89
2018-12-30T05:13:58.908Z,3.89
2018-12-30T05:15:02.341Z,3.92
2018-12-30T05:16:05.799Z,3.95
2018-12-30T05:17:09.255Z,3.97
2018-12-30T05:18:12.692Z,3.97
2018-12-30T05:19:16.127Z,3.97
2018-12-30T05:20:19.562Z,4.08
2018-12-30T05:21:23.017Z,3.96
2018-12-30T05:22:33.657Z,3.89
2018-12-30T05:23:31.606Z,3.96
2018-12-30T05:24:35.039Z,3.99
2018-12-30T05:25:38.470Z,4.03
2018-12-30T05:26:41.928Z,4.08
2018-12-30T05:27:45.393Z,4.07
2018-12-30T05:28:48.832Z,4.08
2018-12-30T05:29:52.328Z,4.00
2018-12-30T05:30:55.779Z,3.93
2018-12-30T05:31:59.237Z,3.85
2018-12-30T05:33:02.698Z,3.94
2018-12-30T05:34:06.134Z,3.96
2018-12-30T05:35:09.630Z,3.96
2018-12-30T05:36:13.070Z,3.93
2018-12-30T05:37:16.536Z,3.96
2018-12-30T05:38:20.004Z,3.98
2018-12-30T05:39:23.441Z,3.90
2018-12-30T05:40:26.877Z,3.83
2018-12-30T05:41:30.316Z,3.88
2018-12-30T05:42:34.251Z,3.88
2018-12-30T05:43:37.719Z,3.88
2018-12-30T05:44:41.213Z,3.84
2018-12-30T05:45:44.649Z,3.86
2018-12-30T05:46:48.082Z,3.90
2018-12-30T05:47:51.524Z,3.96
2018-12-30T05:48:54.975Z,3.93
2018-12-30T05:49:58.496Z,3.96
2018-12-30T05:51:01.923Z,3.93
2018-12-30T05:52:05.373Z,3.89
2018-12-30T05:53:08.897Z,3.88
2018-12-30T05:54:12.353Z,3.91
2018-12-30T05:55:15.784Z,3.88
2018-12-30T05:56:19.209Z,3.92
2018-12-30T05:57:22.650Z,3.92
2018-12-30T05:58:26.109Z,3.90
2018-12-30T05:59:29.542Z,3.93
2018-12-30T06:00:32.987Z,3.94
2018-12-30T06:01:36.422Z,3.92
2018-12-30T06:02:39.856Z,3.97
2018-12-30T06:03:43.318Z,4.06
2018-12-30T06:04:46.761Z,4.05
2018-12-30T06:05:50.197Z,4.03
2018-12-30T06:06:53.630Z,3.94
2018-12-30T06:07:57.069Z,3.95
2018-12-30T06:09:00.527Z,3.96
2018-12-30T06:10:04.222Z,4.03
2018-12-30T06:11:07.731Z,3.99
2018-12-30T06:12:11.174Z,3.99
2018-12-30T06:13:14.613Z,4.05
2018-12-30T06:14:18.068Z,4.14
2018-12-30T06:15:21.507Z,4.17
2018-12-30T06:16:25.038Z,4.11
2018-12-30T06:17:28.458Z,4.13
2018-12-30T06:18:31.886Z,4.11
2018-12-30T06:19:35.337Z,4.01
2018-12-30T06:20:38.773Z,4.05
2018-12-30T06:21:42.274Z,4.06
2018-12-30T06:22:49.437Z,4.04
2018-12-30T06:23:50.877Z,4.10
2018-12-30T06:24:54.327Z,4.10
2018-12-30T06:25:57.762Z,4.18
2018-12-30T06:27:01.197Z,4.15
2018-12-30T06:28:04.700Z,4.09
2018-12-30T06:29:08.150Z,4.04
2018-12-30T06:30:11.599Z,3.99
2018-12-30T06:31:15.040Z,3.98
2018-12-30T06:32:18.482Z,3.98
2018-12-30T06:33:21.914Z,3.97
2018-12-30T06:34:25.348Z,4.06
2018-12-30T06:35:28.879Z,4.15
2018-12-30T06:36:32.376Z,4.18
2018-12-30T06:37:35.813Z,4.00
2018-12-30T06:38:39.263Z,4.02
2018-12-30T06:39:42.704Z,4.06
2018-12-30T06:40:46.158Z,4.10
2018-12-30T06:41:49.631Z,4.12
2018-12-30T06:42:53.057Z,4.16
2018-12-30T06:43:56.530Z,4.16
2018-12-30T06:44:59.971Z,4.20
2018-12-30T06:46:03.471Z,4.23
2018-12-30T06:47:06.918Z,4.20
2018-12-30T06:48:10.362Z,4.15
2018-12-30T06:49:13.795Z,4.14
2018-12-30T06:50:17.234Z,4.14
2018-12-30T06:51:20.675Z,4.16
2018-12-30T06:52:24.189Z,4.14
2018-12-30T06:53:27.693Z,4.24
2018-12-30T06:54:31.128Z,4.19
2018-12-30T06:55:34.578Z,4.13
2018-12-30T06:56:38.097Z,4.13
2018-12-30T06:57:41.555Z,4.03
2018-12-30T06:58:44.985Z,4.08
2018-12-30T06:59:48.498Z,4.09
2018-12-30T07:00:51.928Z,4.11
2018-12-30T07:01:55.379Z,4.12
2018-12-30T07:02:58.824Z,4.22
2018-12-30T07:04:02.257Z,4.16
2018-12-30T07:05:06.226Z,4.17
2018-12-30T07:06:09.740Z,4.25
2018-12-30T07:07:13.195Z,4.17
2018-12-30T07:08:16.648Z,4.08
2018-12-30T07:09:20.090Z,4.14
2018-12-30T07:10:23.591Z,4.12
2018-12-30T07:11:27.097Z,4.10
2018-12-30T07:12:30.554Z,4.10
2018-12-30T07:13:34.062Z,4.13
2018-12-30T07:14:37.567Z,4.11
2018-12-30T07:15:41.002Z,4.09
2018-12-30T07:16:44.433Z,4.07
2018-12-30T07:17:47.894Z,4.13
2018-12-30T07:18:51.360Z,4.16
2018-12-30T07:19:54.791Z,4.23
2018-12-30T07:20:58.228Z,4.26
2018-12-30T07:22:01.670Z,4.28
2018-12-30T07:23:06.047Z,4.30
2018-12-30T07:24:09.743Z,4.22
2018-12-30T07:25:13.251Z,4.17
2018-12-30T07:26:16.679Z,4.21
2018-12-30T07:27:20.110Z,4.22
2018-12-30T07:28:23.559Z,4.19
2018-12-30T07:29:26.990Z,4.17
2018-12-30T07:30:30.421Z,4.10
2018-12-30T07:31:33.857Z,4.11
2018-12-30T07:32:37.285Z,4.05
2018-12-30T07:33:40.744Z,4.07
2018-12-30T07:34:44.197Z,4.08
2018-12-30T07:35:47.693Z,4.03
2018-12-30T07:36:51.138Z,4.04
2018-12-30T07:37:54.570Z,4.05
2018-12-30T07:38:58.055Z,4.07
2018-12-30T07:40:01.500Z,4.12
2018-12-30T07:41:04.927Z,4.14
2018-12-30T07:42:08.362Z,4.13
2018-12-30T07:43:11.796Z,4.15
2018-12-30T07:44:15.244Z,4.16
2018-12-30T07:45:18.702Z,4.21
2018-12-30T07:46:22.134Z,4.18
2018-12-30T07:47:25.574Z,4.16
2018-12-30T07:48:29.016Z,4.12
2018-12-30T07:49:32.462Z,4.09
2018-12-30T07:50:35.914Z,4.22
2018-12-30T07:51:39.354Z,4.17
2018-12-30T07:52:42.782Z,4.21
2018-12-30T07:53:46.218Z,4.18
2018-12-30T07:54:49.668Z,4.10
2018-12-30T07:55:53.125Z,4.00
2018-12-30T07:56:56.563Z,4.12
2018-12-30T07:57:59.998Z,4.17
2018-12-30T07:59:03.437Z,4.04
2018-12-30T08:00:08.596Z,4.05
2018-12-30T08:01:12.077Z,4.15
2018-12-30T08:02:15.504Z,4.20
2018-12-30T08:03:18.935Z,4.08
2018-12-30T08:04:22.487Z,4.05
2018-12-30T08:05:26.515Z,4.04
2018-12-30T08:06:29.973Z,4.07
2018-12-30T08:07:33.399Z,4.07
2018-12-30T08:08:36.860Z,4.10
2018-12-30T08:09:40.305Z,4.14
2018-12-30T08:10:43.761Z,4.25
2018-12-30T08:11:47.179Z,4.32
2018-12-30T08:12:50.610Z,4.39
2018-12-30T08:13:54.044Z,4.41
2018-12-30T08:14:57.493Z,4.34
2018-12-30T08:16:00.959Z,4.33
2018-12-30T08:17:04.487Z,4.31
2018-12-30T08:18:07.918Z,4.35
2018-12-30T08:19:11.426Z,4.34
2018-12-30T08:20:14.868Z,4.36
2018-12-30T08:21:18.392Z,4.40
2018-12-30T08:22:21.847Z,4.41
2018-12-30T08:23:25.283Z,4.36
2018-12-30T08:24:28.711Z,4.20
2018-12-30T08:25:32.138Z,4.23
2018-12-30T08:26:35.595Z,4.29
2018-12-30T08:27:39.124Z,4.31
2018-12-30T08:28:42.675Z,4.34
2018-12-30T08:29:46.074Z,4.34
2018-12-30T08:30:49.496Z,4.34
2018-12-30T08:31:52.941Z,4.38
2018-12-30T08:32:56.375Z,4.41
2018-12-30T08:33:59.824Z,4.41
2018-12-30T08:35:03.254Z,4.40
2018-12-30T08:36:06.692Z,4.47
2018-12-30T08:37:10.133Z,4.52
2018-12-30T08:38:13.586Z,4.53
2018-12-30T08:39:17.019Z,4.47
2018-12-30T08:40:20.461Z,4.52
2018-12-30T08:41:23.981Z,4.46
2018-12-30T08:42:27.435Z,4.46
2018-12-30T08:43:30.895Z,4.41
2018-12-30T08:44:34.329Z,4.36
2018-12-30T08:45:37.830Z,4.31
2018-12-30T08:46:41.269Z,4.35
2018-12-30T08:47:44.808Z,4.38
2018-12-30T08:48:49.712Z,4.43
2018-12-30T08:49:53.291Z,4.42
2018-12-30T08:50:56.721Z,4.39
2018-12-30T08:52:00.175Z,4.43
2018-12-30T08:53:03.632Z,4.50
2018-12-30T08:54:07.158Z,4.55
2018-12-30T08:55:10.589Z,4.56
2018-12-30T08:56:14.029Z,4.55
2018-12-30T08:57:17.456Z,4.54
2018-12-30T08:58:20.981Z,4.58
2018-12-30T08:59:24.411Z,4.55
2018-12-30T09:00:27.852Z,4.48
2018-12-30T09:01:31.289Z,4.52
2018-12-30T09:02:34.718Z,4.58
2018-12-30T09:03:38.176Z,4.64
2018-12-30T09:04:41.702Z,4.63
2018-12-30T09:05:45.139Z,4.57
2018-12-30T09:06:48.568Z,4.62
2018-12-30T09:07:52.000Z,4.54
2018-12-30T09:08:55.481Z,4.49
2018-12-30T09:09:58.946Z,4.42
2018-12-30T09:11:02.376Z,4.52
2018-12-30T09:12:05.812Z,4.50
2018-12-30T09:13:09.239Z,4.55
2018-12-30T09:14:12.692Z,4.61
2018-12-30T09:15:16.166Z,4.66
2018-12-30T09:16:19.594Z,4.62
2018-12-30T09:17:23.022Z,4.70
2018-12-30T09:18:26.451Z,4.73
2018-12-30T09:19:29.926Z,4.70
2018-12-30T09:20:33.446Z,4.71
2018-12-30T09:21:36.978Z,4.67
2018-12-30T09:22:40.415Z,4.63
2018-12-30T09:23:43.846Z,4.59
2018-12-30T09:24:47.295Z,4.60
2018-12-30T09:25:50.764Z,4.69
2018-12-30T09:26:54.226Z,4.77
2018-12-30T09:27:57.658Z,4.72
2018-12-30T09:29:01.174Z,4.76
2018-12-30T09:30:05.562Z,4.71
2018-12-30T09:31:08.998Z,4.71
2018-12-30T09:32:12.431Z,4.68
2018-12-30T09:33:15.869Z,4.59
2018-12-30T09:34:19.370Z,4.48
2018-12-30T09:35:22.863Z,4.54
2018-12-30T09:36:26.367Z,4.66
2018-12-30T09:37:29.866Z,4.72
2018-12-30T09:38:33.305Z,4.77
2018-12-30T09:39:36.755Z,4.67
2018-12-30T09:40:40.210Z,4.65
2018-12-30T09:41:43.643Z,4.68
2018-12-30T09:42:47.071Z,4.66
2018-12-30T09:43:50.516Z,4.61
2018-12-30T09:44:54.033Z,4.59
2018-12-30T09:45:57.557Z,4.66
2018-12-30T09:47:00.985Z,4.69
2018-12-30T09:48:04.489Z,4.72
2018-12-30T09:49:07.923Z,4.80
2018-12-30T09:50:11.390Z,4.81
2018-12-30T09:51:14.810Z,4.77
2018-12-30T09:52:18.258Z,4.84
2018-12-30T09:53:21.688Z,4.88
2018-12-30T09:54:25.122Z,4.90
2018-12-30T09:55:28.563Z,4.95
2018-12-30T09:56:32.010Z,4.88
2018-12-30T09:57:35.469Z,4.94
2018-12-30T09:58:38.908Z,4.96
2018-12-30T09:59:42.333Z,4.87
2018-12-30T10:00:47.540Z,4.86
2018-12-30T10:01:51.103Z,4.90
2018-12-30T10:02:54.554Z,4.89
2018-12-30T10:03:57.982Z,4.93
2018-12-30T10:05:01.421Z,4.87
2018-12-30T10:06:04.937Z,4.79
2018-12-30T10:07:08.387Z,4.74
2018-12-30T10:08:11.858Z,4.71
2018-12-30T10:09:15.290Z,4.87
2018-12-30T10:10:18.769Z,4.75
2018-12-30T10:11:22.234Z,4.70
2018-12-30T10:12:25.684Z,4.67
2018-12-30T10:13:29.143Z,4.71
2018-12-30T10:14:32.564Z,4.77
2018-12-30T10:15:35.993Z,4.67
2018-12-30T10:16:39.593Z,4.67
2018-12-30T10:17:43.179Z,4.67
2018-12-30T10:18:46.637Z,4.67
2018-12-30T10:19:50.077Z,4.69
2018-12-30T10:20:53.634Z,4.70
2018-12-30T10:21:57.154Z,4.73
2018-12-30T10:23:00.686Z,4.79
2018-12-30T10:24:04.206Z,4.88
2018-12-30T10:25:07.711Z,4.83
2018-12-30T10:26:11.142Z,4.83
2018-12-30T10:27:14.593Z,4.88
2018-12-30T10:28:18.051Z,4.95
2018-12-30T10:29:21.490Z,4.98
2018-12-30T10:30:26.617Z,4.95
2018-12-30T10:31:30.194Z,4.95
2018-12-30T10:32:33.630Z,4.95
2018-12-30T10:33:37.077Z,4.82
2018-12-30T10:34:40.530Z,4.79
2018-12-30T10:35:43.958Z,4.78
2018-12-30T10:36:47.396Z,4.87
2018-12-30T10:37:50.828Z,4.90
2018-12-30T10:38:54.309Z,4.91
2018-12-30T10:39:57.801Z,4.93
2018-12-30T10:41:01.229Z,4.94
2018-12-30T10:42:04.668Z,4.97
2018-12-30T10:43:08.174Z,5.06
2018-12-30T10:44:11.627Z,5.16
2018-12-30T10:45:15.185Z,5.09
2018-12-30T10:46:18.615Z,4.97
2018-12-30T10:47:22.067Z,4.86
2018-12-30T10:48:25.507Z,4.81
2018-12-30T10:49:28.953Z,4.80
2018-12-30T10:50:32.429Z,4.88
2018-12-30T10:51:35.871Z,4.98
2018-12-30T10:52:39.309Z,4.92
2018-12-30T10:53:42.742Z,4.86
2018-12-30T10:54:46.200Z,4.94
2018-12-30T10:55:49.629Z,5.06
2018-12-30T10:56:53.078Z,5.13
2018-12-30T10:57:56.505Z,5.08
2018-12-30T10:58:59.944Z,5.11
2018-12-30T11:00:03.568Z,4.97
2018-12-30T11:01:07.070Z,5.06
2018-12-30T11:02:10.583Z,5.01
2018-12-30T11:03:14.026Z,4.93
2018-12-30T11:04:17.532Z,4.95
2018-12-30T11:05:21.046Z,5.01
2018-12-30T11:06:24.505Z,5.01
2018-12-30T11:07:27.945Z,5.03
2018-12-30T11:08:31.444Z,5.04
2018-12-30T11:09:34.877Z,5.08
2018-12-30T11:10:38.327Z,5.08
2018-12-30T11:11:41.767Z,5.08
2018-12-30T11:12:45.210Z,5.01
2018-12-30T11:13:48.640Z,4.94
2018-12-30T11:14:52.151Z,5.02
2018-12-30T11:15:55.618Z,5.03
2018-12-30T11:16:59.205Z,5.07
2018-12-30T11:18:02.644Z,5.10
2018-12-30T11:19:06.148Z,5.15
2018-12-30T11:20:09.655Z,5.10
2018-12-30T11:21:13.216Z,5.03
2018-12-30T11:22:16.671Z,5.10
2018-12-30T11:23:20.163Z,5.06
2018-12-30T11:24:23.633Z,5.05
2018-12-30T11:25:27.138Z,4.94
2018-12-30T11:26:30.616Z,4.99
2018-12-30T11:27:34.884Z,5.10
2018-12-30T11:28:38.411Z,5.11
2018-12-30T11:29:41.897Z,5.15
2018-12-30T11:30:45.569Z,5.11
2018-12-30T11:31:49.019Z,5.15
2018-12-30T11:32:52.800Z,5.25
2018-12-30T11:33:56.226Z,5.34
2018-12-30T11:34:59.748Z,5.37
2018-12-30T11:36:03.172Z,5.29
2018-12-30T11:37:06.627Z,5.23
2018-12-30T11:38:10.144Z,5.27
2018-12-30T11:39:13.576Z,5.32
2018-12-30T11:40:17.096Z,5.18
2018-12-30T11:41:20.607Z,5.13
2018-12-30T11:42:24.093Z,5.10
2018-12-30T11:43:27.536Z,5.16
2018-12-30T11:44:30.987Z,5.22
2018-12-30T11:45:34.546Z,5.16
2018-12-30T11:46:38.040Z,5.15
2018-12-30T11:47:41.587Z,5.23
2018-12-30T11:48:45.109Z,5.23
2018-12-30T11:49:48.561Z,5.20
2018-12-30T11:50:52.065Z,5.19
2018-12-30T11:51:55.499Z,5.16
2018-12-30T11:52:58.995Z,5.13
2018-12-30T11:54:02.434Z,5.14
2018-12-30T11:55:05.936Z,5.12
2018-12-30T11:56:09.362Z,5.19
2018-12-30T11:57:12.815Z,5.22
2018-12-30T11:58:16.276Z,5.16
2018-12-30T11:59:19.718Z,5.15
2018-12-30T12:00:23.277Z,5.21
2018-12-30T12:01:26.772Z,5.27
2018-12-30T12:02:30.214Z,5.27
2018-12-30T12:03:33.669Z,5.33
2018-12-30T12:04:37.186Z,5.37
2018-12-30T12:05:40.622Z,5.42
2018-12-30T12:06:44.052Z,5.43
2018-12-30T12:07:47.485Z,5.48
2018-12-30T12:08:50.954Z,5.46
2018-12-30T12:09:54.411Z,5.46
2018-12-30T12:10:57.849Z,5.44
2018-12-30T12:12:01.343Z,5.36
2018-12-30T12:13:04.786Z,5.35
2018-12-30T12:14:08.261Z,5.28
2018-12-30T12:15:11.780Z,5.27
2018-12-30T12:16:15.262Z,5.20
2018-12-30T12:17:18.804Z,5.28
2018-12-30T12:18:22.327Z,5.35
2018-12-30T12:19:25.767Z,5.29
2018-12-30T12:20:29.220Z,5.34
2018-12-30T12:21:32.664Z,5.23
2018-12-30T12:22:36.100Z,5.22
2018-12-30T12:23:39.530Z,5.17
2018-12-30T12:24:43.274Z,5.23
2018-12-30T12:25:46.815Z,5.25
2018-12-30T12:26:50.329Z,5.29
2018-12-30T12:27:53.761Z,5.19
2018-12-30T12:28:57.186Z,5.19
2018-12-30T12:30:00.635Z,5.23
2018-12-30T12:31:04.077Z,5.24
2018-12-30T12:32:07.653Z,5.22
2018-12-30T12:33:11.078Z,5.14
2018-12-30T12:34:14.589Z,5.14
2018-12-30T12:35:18.105Z,5.23
2018-12-30T12:36:21.613Z,5.28
2018-12-30T12:37:25.043Z,5.30
2018-12-30T12:38:28.618Z,5.32
2018-12-30T12:39:32.083Z,5.27
2018-12-30T12:40:35.532Z,5.31
2018-12-30T12:41:38.981Z,5.35
2018-12-30T12:42:42.401Z,5.35
2018-12-30T12:43:45.834Z,5.40
2018-12-30T12:44:49.311Z,5.35
2018-12-30T12:45:52.760Z,5.41
2018-12-30T12:46:56.263Z,5.47
2018-12-30T12:47:59.697Z,5.46
2018-12-30T12:49:03.235Z,5.55
2018-12-30T12:50:06.882Z,5.61
2018-12-30T12:51:10.335Z,5.55
2018-12-30T12:52:13.801Z,5.53
2018-12-30T12:53:17.331Z,5.51
2018-12-30T12:54:20.763Z,5.52
2018-12-30T12:55:24.215Z,5.41
2018-12-30T12:56:27.637Z,5.45
2018-12-30T12:57:31.085Z,5.49
2018-12-30T12:58:34.525Z,5.48
2018-12-30T12:59:37.957Z,5.48
2018-12-30T13:00:41.383Z,5.54
2018-12-30T13:01:44.845Z,5.49
2018-12-30T13:02:48.346Z,5.44
2018-12-30T13:03:51.777Z,5.31
2018-12-30T13:04:55.244Z,5.39
2018-12-30T13:05:58.679Z,5.39
2018-12-30T13:07:02.154Z,5.24
2018-12-30T13:08:07.073Z,5.26
2018-12-30T13:09:10.623Z,5.26
2018-12-30T13:10:14.144Z,5.20
2018-12-30T13:11:17.578Z,5.27
2018-12-30T13:12:21.067Z,5.30
2018-12-30T13:13:24.513Z,5.35
2018-12-30T13:14:27.947Z,5.40
2018-12-30T13:15:31.509Z,5.36
2018-12-30T13:16:34.932Z,5.32
2018-12-30T13:17:38.382Z,5.33
2018-12-30T13:18:41.904Z,5.37
2018-12-30T13:19:45.332Z,5.44
2018-12-30T13:20:48.765Z,5.48
2018-12-30T13:21:52.199Z,5.50
2018-12-30T13:22:55.642Z,5.57
2018-12-30T13:23:59.156Z,5.52
2018-12-30T13:25:02.588Z,5.50
2018-12-30T13:26:06.010Z,5.53
2018-12-30T13:27:09.442Z,5.53
2018-12-30T13:28:12.971Z,5.52
2018-12-30T13:29:16.422Z,5.56
2018-12-30T13:30:19.845Z,5.58
2018-12-30T13:31:23.284Z,5.59
2018-12-30T13:32:26.706Z,5.52
2018-12-30T13:33:30.163Z,5.46
2018-12-30T13:34:33.618Z,5.53
2018-12-30T13:35:43.395Z,5.53
2018-12-30T13:36:42.204Z,5.52
2018-12-30T13:37:45.671Z,5.62
2018-12-30T13:38:49.165Z,5.68
2018-12-30T13:39:52.614Z,5.69
2018-12-30T13:40:56.047Z,5.70
2018-12-30T13:41:59.473Z,5.64
2018-12-30T13:43:02.903Z,5.58
2018-12-30T13:44:06.416Z,5.56
2018-12-30T13:45:10.003Z,5.62
2018-12-30T13:46:13.441Z,5.59
2018-12-30T13:47:16.869Z,5.58
2018-12-30T13:48:20.453Z,5.67
2018-12-30T13:49:23.905Z,5.71
2018-12-30T13:50:27.328Z,5.68
2018-12-30T13:51:30.764Z,5.71
2018-12-30T13:52:35.074Z,5.74
2018-12-30T13:53:38.501Z,5.65
2018-12-30T13:54:47.551Z,5.64
2018-12-30T13:55:48.737Z,5.44
2018-12-30T13:56:52.256Z,5.46
2018-12-30T13:57:55.697Z,5.57
2018-12-30T13:58:59.118Z,5.47
2018-12-30T14:00:02.631Z,5.48
2018-12-30T14:01:06.097Z,5.59
2018-12-30T14:02:09.538Z,5.67
2018-12-30T14:03:13.037Z,5.64
2018-12-30T14:04:16.471Z,5.57
2018-12-30T14:05:19.930Z,5.61